Birch Harbor, Maine
Current Conditions -  °F | °C
As of 9:35 PM on Sunday 25 Jan 2015 (Local Time) from KBHB Reporting Station
Clear Clear  
Wind Chill: -5°   Ceiling: Unl
Heat Index: 10°   Visibility: 10mi
Dew Point:   Wind: 14mph
Humidity: 67%   Direction: 300°WNW
Pressure: 29.88"   Gusts: 18mph
Location:  44.39°N, 68.04°W
Report Text: KBHB 260235Z 30012G16KT 10SM CLR M12/M17 A2988 RMK AO1
Loading
Personal Weather Stations






























Interactive Weather Map New forecast layout! Learn more

10-Day Weather Forecast

Advertisements
Track Severe Weather on mobile